Time;durP1;ratioP1;P1;durP2;ratioP2;P2;SDS_P1;SDS_P2;PMS_P1;PMS_P2;Temp;Humidity;BMP_temperature;BMP_pressure;BME280_temperature;BME280_humidity;BME280_pressure;Samples;Min_cycle;Max_cycle;Signal;HPM_P1;HPM_P2
2021/07/13 00:00:13;;;;;;;4.20;3.90;;;19.10;74.80;;;;;;5078728;28;20508;-86
2021/07/13 00:02:42;;;;;;;4.23;3.93;;;19.00;74.70;;;;;;5066990;28;20551;-86
2021/07/13 00:05:15;;;;;;;3.50;3.20;;;18.90;75.10;;;;;;5045748;28;20451;-85
2021/07/13 00:07:44;;;;;;;3.93;3.67;;;18.80;75.60;;;;;;5076037;28;20503;-85
2021/07/13 00:10:19;;;;;;;3.77;3.47;;;18.70;75.90;;;;;;5078115;28;20432;-84
2021/07/13 00:12:47;;;;;;;3.70;3.43;;;18.60;76.60;;;;;;5075466;28;20479;-85
2021/07/13 00:15:21;;;;;;;4.40;4.10;;;18.60;77.50;;;;;;5053178;28;20452;-86
2021/07/13 00:17:55;;;;;;;7.23;3.90;;;18.60;78.10;;;;;;5051930;28;20446;-85
2021/07/13 00:20:24;;;;;;;4.30;3.90;;;18.60;78.50;;;;;;5052331;28;20441;-85
2021/07/13 00:22:53;;;;;;;4.50;4.20;;;18.60;78.60;;;;;;5032761;28;20633;-85
2021/07/13 00:25:21;;;;;;;4.27;3.97;;;18.60;78.60;;;;;;5056711;28;20463;-86
2021/07/13 00:27:51;;;;;;;4.60;4.23;;;18.50;78.70;;;;;;5062645;28;20472;-85
2021/07/13 00:30:21;;;;;;;4.97;4.37;;;18.40;78.80;;;;;;5078066;28;20456;-85
2021/07/13 00:32:52;;;;;;;5.00;4.50;;;18.40;78.80;;;;;;5074699;28;20459;-84
2021/07/13 00:35:20;;;;;;;4.30;4.00;;;18.40;79.00;;;;;;5065511;28;20451;-85
2021/07/13 00:37:48;;;;;;;4.20;3.80;;;18.40;79.40;;;;;;5069558;28;20449;-85
2021/07/13 00:40:21;;;;;;;9.73;4.23;;;18.30;79.50;;;;;;5059009;28;20492;-86
2021/07/13 00:42:53;;;;;;;4.03;3.73;;;18.30;79.60;;;;;;5044323;28;20448;-85
2021/07/13 00:45:22;;;;;;;4.83;4.53;;;18.30;79.60;;;;;;5047028;28;20445;-85
2021/07/13 00:47:52;;;;;;;4.70;4.17;;;18.20;80.00;;;;;;5052046;28;20442;-85
2021/07/13 00:50:21;;;;;;;4.73;4.23;;;18.10;80.30;;;;;;5054780;28;20789;-85
2021/07/13 00:52:50;;;;;;;4.90;4.40;;;18.10;80.70;;;;;;5049789;28;20821;-85
2021/07/13 00:55:18;;;;;;;4.50;4.20;;;18.10;81.00;;;;;;5045605;28;20451;-85
2021/07/13 00:57:45;;;;;;;4.80;4.40;;;18.00;81.20;;;;;;5053672;28;20868;-85
2021/07/13 01:00:15;;;;;;;4.80;4.50;;;18.00;81.40;;;;;;5053619;28;20583;-86
2021/07/13 01:02:43;;;;;;;4.57;4.17;;;17.90;82.10;;;;;;5048727;28;20995;-86
2021/07/13 01:05:17;;;;;;;4.40;4.10;;;17.80;82.60;;;;;;5038671;28;20448;-85
2021/07/13 01:07:55;;;;;;;5.03;3.90;;;17.80;83.00;;;;;;5051722;28;20466;-85
2021/07/13 01:10:30;;;;;;;4.57;4.27;;;17.90;82.90;;;;;;5048440;28;21038;-86
2021/07/13 01:13:03;;;;;;;4.43;4.13;;;17.90;82.70;;;;;;5043507;28;20491;-86
2021/07/13 01:15:34;;;;;;;4.10;3.80;;;18.00;82.30;;;;;;5040470;28;20533;-86
2021/07/13 01:18:04;;;;;;;4.70;4.30;;;18.00;83.60;;;;;;5049736;28;20846;-86
2021/07/13 01:21:07;;;;;;;4.37;4.00;;;18.10;82.90;;;;;;5045792;28;20791;-85
2021/07/13 01:23:43;;;;;;;4.60;4.30;;;18.20;82.00;;;;;;5050326;28;20450;-85
2021/07/13 01:29:05;;;;;;;4.80;4.40;;;18.20;82.40;;;;;;5047767;28;20470;-86
2021/07/13 01:31:33;;;;;;;4.70;4.30;;;18.10;82.80;;;;;;5051072;28;20458;-87
2021/07/13 01:34:04;;;;;;;3.90;3.70;;;18.00;82.80;;;;;;5049315;28;20511;-86
2021/07/13 01:36:36;;;;;;;4.90;4.47;;;18.00;83.00;;;;;;5055649;28;20490;-85
2021/07/13 01:39:07;;;;;;;5.17;4.57;;;18.00;83.20;;;;;;5042772;28;20591;-85
2021/07/13 01:41:34;;;;;;;4.60;4.30;;;18.00;83.60;;;;;;5043416;28;20479;-86
2021/07/13 01:44:03;;;;;;;4.53;4.23;;;18.00;83.70;;;;;;5054686;28;20538;-86
2021/07/13 01:46:32;;;;;;;4.80;4.40;;;18.00;83.40;;;;;;5058567;28;20446;-85
2021/07/13 01:49:01;;;;;;;5.03;3.80;;;18.00;83.40;;;;;;5043960;28;20450;-86
2021/07/13 01:51:29;;;;;;;4.67;4.27;;;18.00;83.30;;;;;;5050934;28;20476;-86
2021/07/13 01:54:05;;;;;;;4.17;3.87;;;18.10;82.80;;;;;;5038803;28;20468;-86
2021/07/13 01:56:34;;;;;;;4.10;3.80;;;18.10;82.50;;;;;;5056186;28;20456;-86
2021/07/13 01:59:03;;;;;;;5.13;4.43;;;18.10;82.10;;;;;;5054934;28;21046;-86
2021/07/13 02:01:37;;;;;;;7.13;4.50;;;18.20;82.00;;;;;;5056883;28;20444;-85
2021/07/13 02:04:06;;;;;;;6.50;4.60;;;18.20;81.30;;;;;;5044967;28;20502;-86
2021/07/13 02:06:34;;;;;;;4.63;4.10;;;18.20;81.40;;;;;;5029559;28;21063;-85
2021/07/13 02:09:06;;;;;;;5.27;4.57;;;18.20;81.90;;;;;;5044258;28;20456;-86
2021/07/13 02:11:35;;;;;;;4.30;4.00;;;18.20;81.70;;;;;;5048180;28;20455;-85
2021/07/13 02:14:04;;;;;;;4.80;4.40;;;18.20;81.60;;;;;;5066267;28;20556;-85
2021/07/13 02:16:32;;;;;;;4.60;4.20;;;18.10;82.00;;;;;;5059731;28;20467;-85
2021/07/13 02:18:59;;;;;;;5.10;3.93;;;18.00;81.80;;;;;;5067124;28;20501;-85
2021/07/13 02:21:26;;;;;;;5.00;4.23;;;18.00;81.90;;;;;;5074414;28;20446;-85
2021/07/13 02:23:53;;;;;;;3.93;3.63;;;18.00;81.80;;;;;;5066875;28;20538;-85
2021/07/13 02:26:25;;;;;;;4.57;4.23;;;18.00;82.00;;;;;;5057613;28;20480;-85
2021/07/13 02:29:00;;;;;;;4.30;3.90;;;18.00;81.80;;;;;;5048989;28;20449;-86
2021/07/13 02:31:34;;;;;;;4.23;3.93;;;18.00;82.40;;;;;;5041171;28;20465;-86
2021/07/13 02:34:06;;;;;;;6.93;4.33;;;18.20;82.10;;;;;;5040032;28;21573;-86
2021/07/13 02:36:36;;;;;;;4.30;3.93;;;18.20;81.70;;;;;;5040713;28;20455;-86
2021/07/13 02:39:08;;;;;;;4.03;3.63;;;18.20;81.50;;;;;;5039602;28;20467;-86
2021/07/13 02:41:36;;;;;;;5.40;5.00;;;18.10;81.60;;;;;;5056374;28;20448;-86
2021/07/13 02:44:04;;;;;;;4.10;3.80;;;18.10;81.60;;;;;;5054089;28;20514;-86
2021/07/13 02:46:40;;;;;;;4.90;4.60;;;18.10;81.90;;;;;;5055736;28;20458;-86
2021/07/13 02:49:09;;;;;;;4.57;4.27;;;18.10;82.70;;;;;;5047793;28;20459;-86
2021/07/13 02:51:37;;;;;;;4.80;4.50;;;18.00;83.10;;;;;;5059480;28;20507;-82
2021/07/13 02:54:07;;;;;;;4.60;4.30;;;18.00;83.00;;;;;;5051227;28;20478;-82
2021/07/13 02:56:36;;;;;;;5.00;4.60;;;18.00;83.10;;;;;;5058742;28;20499;-82
2021/07/13 02:59:07;;;;;;;5.30;4.60;;;18.00;83.10;;;;;;5066104;28;20449;-78
2021/07/13 03:01:38;;;;;;;4.70;4.30;;;18.00;83.10;;;;;;5069587;28;20459;-82
2021/07/13 03:04:06;;;;;;;5.40;4.90;;;18.00;82.60;;;;;;5057200;28;20480;-81
2021/07/13 03:06:36;;;;;;;4.83;4.40;;;18.10;83.00;;;;;;5052531;28;20474;-81
2021/07/13 03:09:05;;;;;;;6.10;4.97;;;18.10;82.90;;;;;;5062128;28;20450;-82
2021/07/13 03:11:34;;;;;;;5.30;4.90;;;18.10;83.00;;;;;;5049211;28;20515;-81
2021/07/13 03:14:03;;;;;;;5.63;5.00;;;18.00;83.40;;;;;;5071139;28;20480;-81
2021/07/13 03:16:32;;;;;;;5.17;4.77;;;18.00;83.60;;;;;;5069103;28;20468;-81
2021/07/13 03:19:01;;;;;;;7.23;4.60;;;17.90;84.20;;;;;;5070907;28;20445;-81
2021/07/13 03:21:32;;;;;;;5.40;4.90;;;18.00;84.80;;;;;;5066107;28;20488;-81
2021/07/13 03:24:03;;;;;;;5.00;4.70;;;17.90;85.60;;;;;;5055833;28;20445;-81
2021/07/13 03:26:33;;;;;;;5.43;5.03;;;17.80;85.50;;;;;;5065393;28;20450;-81
2021/07/13 03:29:02;;;;;;;4.60;4.30;;;17.80;85.00;;;;;;5060534;28;20443;-81
2021/07/13 03:31:30;;;;;;;5.13;4.73;;;17.80;85.50;;;;;;5060294;28;20449;-82
2021/07/13 03:33:59;;;;;;;4.90;4.50;;;17.80;85.20;;;;;;5061741;28;20471;-82
2021/07/13 03:36:29;;;;;;;6.00;5.50;;;17.80;85.80;;;;;;5064506;28;20544;-81
2021/07/13 03:38:57;;;;;;;5.10;4.70;;;17.80;85.70;;;;;;5059111;28;20478;-82
2021/07/13 03:41:25;;;;;;;5.83;5.43;;;17.70;86.20;;;;;;5059400;28;20457;-82
2021/07/13 03:43:53;;;;;;;4.97;4.57;;;17.70;88.60;;;;;;5067261;28;20484;-82
2021/07/13 03:46:20;;;;;;;5.77;5.13;;;17.70;87.70;;;;;;5071147;28;20453;-82
2021/07/13 03:48:49;;;;;;;5.70;5.10;;;17.60;89.20;;;;;;5069320;28;20452;-81
2021/07/13 03:51:26;;;;;;;5.60;5.20;;;17.50;92.50;;;;;;5058992;28;20954;-82
2021/07/13 03:53:55;;;;;;;5.90;5.40;;;17.30;92.90;;;;;;5063593;28;21069;-81
2021/07/13 03:56:21;;;;;;;6.30;5.80;;;17.30;95.00;;;;;;5062852;28;20450;-81
2021/07/13 03:58:51;;;;;;;5.93;5.53;;;17.20;94.00;;;;;;5064172;28;20444;-81
2021/07/13 04:01:18;;;;;;;6.03;5.63;;;17.20;94.10;;;;;;5062725;28;20467;-81
2021/07/13 04:03:44;;;;;;;6.50;6.00;;;17.10;94.40;;;;;;5062134;28;20487;-81
2021/07/13 04:06:11;;;;;;;6.23;5.73;;;17.00;95.60;;;;;;5064411;28;20498;-81
2021/07/13 04:08:39;;;;;;;5.97;5.57;;;17.00;94.90;;;;;;5061340;28;20443;-81
2021/07/13 04:11:07;;;;;;;5.60;5.20;;;16.90;94.20;;;;;;5065532;28;20474;-81
2021/07/13 04:13:34;;;;;;;5.90;5.40;;;17.00;94.50;;;;;;5062537;28;20467;-81
2021/07/13 04:16:01;;;;;;;6.17;5.67;;;17.00;94.70;;;;;;5067119;28;20458;-81
2021/07/13 04:18:28;;;;;;;5.93;5.50;;;16.90;94.00;;;;;;5069919;28;20434;-82
2021/07/13 04:20:55;;;;;;;5.67;5.30;;;17.00;94.30;;;;;;5064814;28;20431;-82
2021/07/13 04:23:22;;;;;;;6.47;5.90;;;17.00;94.10;;;;;;5056477;28;20459;-81
2021/07/13 04:25:49;;;;;;;6.70;6.20;;;17.10;94.90;;;;;;5064486;28;20448;-82
2021/07/13 04:28:20;;;;;;;5.60;5.20;;;17.30;95.00;;;;;;5052146;28;20482;-82
2021/07/13 04:30:47;;;;;;;6.07;5.57;;;17.40;94.90;;;;;;5054154;28;20438;-82
2021/07/13 04:33:14;;;;;;;6.17;5.57;;;17.50;94.60;;;;;;5064038;28;20466;-81
2021/07/13 04:35:42;;;;;;;6.07;5.50;;;17.60;92.70;;;;;;5059411;28;20439;-81
2021/07/13 04:38:10;;;;;;;6.30;5.20;;;17.70;93.90;;;;;;5062497;28;20452;-81
2021/07/13 04:40:38;;;;;;;6.30;5.80;;;17.70;91.60;;;;;;5060174;28;20454;-81
2021/07/13 04:43:06;;;;;;;6.13;5.63;;;17.80;91.60;;;;;;5057989;28;21099;-82
2021/07/13 04:45:34;;;;;;;6.33;5.83;;;17.80;91.30;;;;;;5059755;28;20542;-80
2021/07/13 04:48:03;;;;;;;5.50;5.10;;;18.00;91.60;;;;;;5060642;28;20467;-81
2021/07/13 04:50:30;;;;;;;5.30;4.90;;;18.10;91.00;;;;;;5061512;28;20452;-82
2021/07/13 04:52:57;;;;;;;5.17;4.73;;;18.30;90.70;;;;;;5058424;28;20452;-81
2021/07/13 04:55:25;;;;;;;5.37;5.00;;;18.40;90.40;;;;;;5055739;28;20492;-82
2021/07/13 04:57:52;;;;;;;4.87;4.57;;;18.50;90.10;;;;;;5050031;28;20523;-82
2021/07/13 05:00:19;;;;;;;5.60;5.20;;;18.50;89.80;;;;;;5050427;28;20482;-81
2021/07/13 05:02:47;;;;;;;5.33;4.97;;;18.50;89.80;;;;;;5046609;28;20843;-81
2021/07/13 05:05:17;;;;;;;4.50;4.20;;;18.60;90.10;;;;;;5051376;28;20462;-82
2021/07/13 05:07:45;;;;;;;4.80;4.50;;;18.60;85.90;;;;;;5061726;28;21010;-82
2021/07/13 05:10:14;;;;;;;4.40;4.10;;;18.70;87.50;;;;;;5055144;28;20464;-82
2021/07/13 05:12:41;;;;;;;4.50;4.10;;;18.60;87.20;;;;;;5052522;28;20447;-82
2021/07/13 05:15:10;;;;;;;5.30;4.90;;;18.80;87.40;;;;;;5047627;28;20466;-81
2021/07/13 05:17:38;;;;;;;4.50;4.10;;;18.90;86.60;;;;;;5052362;28;20558;-81
2021/07/13 05:20:11;;;;;;;4.80;4.40;;;19.10;85.10;;;;;;5064459;28;20458;-81
2021/07/13 05:22:40;;;;;;;6.00;4.70;;;19.40;83.80;;;;;;5060062;28;20459;-81
2021/07/13 05:25:09;;;;;;;5.33;4.47;;;19.60;82.50;;;;;;5061792;28;20439;-80
2021/07/13 05:27:38;;;;;;;4.90;4.60;;;19.70;81.90;;;;;;5051455;28;20480;-81
2021/07/13 05:30:07;;;;;;;4.03;3.83;;;20.10;80.90;;;;;;5053026;28;20815;-81
2021/07/13 05:32:34;;;;;;;4.90;4.50;;;20.30;79.60;;;;;;5046151;28;20471;-82
2021/07/13 05:35:00;;;;;;;4.57;4.17;;;20.60;77.20;;;;;;5052550;28;21059;-82
2021/07/13 05:37:29;;;;;;;4.90;4.47;;;20.90;75.40;;;;;;5059690;28;20463;-80
2021/07/13 05:39:56;;;;;;;4.70;4.40;;;21.00;74.40;;;;;;5053758;28;20485;-82
2021/07/13 05:42:23;;;;;;;5.53;4.07;;;20.90;73.80;;;;;;5045429;28;20460;-82
2021/07/13 05:44:51;;;;;;;5.17;4.10;;;21.10;73.30;;;;;;5050317;28;20453;-82
2021/07/13 05:47:18;;;;;;;4.63;4.23;;;21.00;73.60;;;;;;5049701;28;20461;-81
2021/07/13 05:49:46;;;;;;;5.00;4.60;;;20.80;74.00;;;;;;5046898;28;20446;-81
2021/07/13 05:52:14;;;;;;;4.70;4.23;;;20.70;74.40;;;;;;5049412;28;20469;-81
2021/07/13 05:54:43;;;;;;;4.60;4.20;;;20.90;74.30;;;;;;5050437;28;20477;-81
2021/07/13 05:57:11;;;;;;;4.17;3.90;;;21.10;73.10;;;;;;5052825;28;20455;-82
2021/07/13 05:59:38;;;;;;;4.33;4.03;;;21.20;73.10;;;;;;5065318;28;20457;-82
2021/07/13 06:04:50;;;;;;;5.20;4.80;;;21.30;72.20;;;;;;5072786;28;20456;-82
2021/07/13 06:07:18;;;;;;;4.23;3.93;;;21.20;72.00;;;;;;5063318;28;20524;-80
2021/07/13 06:09:46;;;;;;;4.47;4.17;;;21.30;71.20;;;;;;5063076;28;20446;-81
2021/07/13 06:12:13;;;;;;;5.50;4.90;;;21.00;72.70;;;;;;5054711;28;20526;-81
2021/07/13 06:14:42;;;;;;;5.77;5.27;;;20.90;73.30;;;;;;5064353;28;20470;-82
2021/07/13 06:17:10;;;;;;;6.70;4.80;;;20.70;74.00;;;;;;5056513;28;20456;-82
2021/07/13 06:19:37;;;;;;;5.90;5.40;;;20.80;74.10;;;;;;5060509;28;20432;-80
2021/07/13 06:22:05;;;;;;;6.87;5.67;;;20.90;73.90;;;;;;5069771;28;20476;-80
2021/07/13 06:24:32;;;;;;;5.70;5.30;;;21.10;74.10;;;;;;5062542;28;20453;-79
2021/07/13 06:27:00;;;;;;;5.50;5.00;;;21.50;73.70;;;;;;5057741;28;20454;-79
2021/07/13 06:29:29;;;;;;;5.50;5.00;;;21.50;73.70;;;;;;5059304;28;20454;-79
2021/07/13 06:31:56;;;;;;;5.73;5.23;;;21.70;73.10;;;;;;5050852;28;20511;-77
2021/07/13 06:34:22;;;;;;;5.30;4.70;;;22.00;72.40;;;;;;5051022;28;20474;-78
2021/07/13 06:36:50;;;;;;;5.43;4.70;;;22.00;72.40;;;;;;5055784;28;20579;-79
2021/07/13 06:39:16;;;;;;;4.70;4.40;;;21.80;72.10;;;;;;5066947;28;20453;-79
2021/07/13 06:41:43;;;;;;;4.53;4.20;;;21.60;71.20;;;;;;5050560;28;20449;-78
2021/07/13 06:44:13;;;;;;;4.30;4.00;;;21.70;71.90;;;;;;5059140;28;20458;-79
2021/07/13 06:46:41;;;;;;;4.93;4.07;;;21.50;70.70;;;;;;5061407;28;20473;-79
2021/07/13 06:49:08;;;;;;;4.90;4.60;;;21.70;70.90;;;;;;5052032;28;20462;-79
2021/07/13 06:51:34;;;;;;;5.30;3.77;;;21.90;70.90;;;;;;5066879;28;20455;-79
2021/07/13 06:54:01;;;;;;;4.60;4.20;;;21.90;71.00;;;;;;5057230;28;20493;-78
2021/07/13 06:56:29;;;;;;;4.17;3.87;;;21.90;70.70;;;;;;5057968;28;20465;-78
2021/07/13 06:58:56;;;;;;;5.17;4.43;;;22.00;71.10;;;;;;5060791;28;20460;-79
2021/07/13 07:01:25;;;;;;;5.10;4.60;;;22.00;70.30;;;;;;5056511;28;20444;-78
2021/07/13 07:03:52;;;;;;;4.50;4.10;;;22.10;70.60;;;;;;5068000;28;20477;-80
2021/07/13 07:06:19;;;;;;;4.60;4.30;;;22.20;70.00;;;;;;5063089;28;20460;-78
2021/07/13 07:08:46;;;;;;;6.37;4.40;;;22.50;69.60;;;;;;5058033;28;20437;-78
2021/07/13 07:11:13;;;;;;;4.27;3.97;;;22.40;69.50;;;;;;5059150;28;20456;-78
2021/07/13 07:13:41;;;;;;;4.20;3.83;;;22.50;70.20;;;;;;5048077;28;20500;-79
2021/07/13 07:16:08;;;;;;;4.40;4.10;;;22.80;69.30;;;;;;5058098;28;20511;-80
2021/07/13 07:18:37;;;;;;;4.60;4.30;;;22.90;69.30;;;;;;5054772;28;20732;-78
2021/07/13 07:21:04;;;;;;;4.70;4.30;;;22.60;69.50;;;;;;5054196;28;20506;-78
2021/07/13 07:23:31;;;;;;;3.77;3.57;;;22.50;69.50;;;;;;5048893;28;20470;-78
2021/07/13 07:25:58;;;;;;;4.97;4.57;;;22.40;70.10;;;;;;5051605;28;20488;-78
2021/07/13 07:28:25;;;;;;;3.97;3.70;;;22.50;70.70;;;;;;5054493;28;20560;-78
2021/07/13 07:30:52;;;;;;;4.63;4.33;;;22.50;70.50;;;;;;5051892;28;20534;-78
2021/07/13 07:33:19;;;;;;;4.37;4.07;;;22.30;70.30;;;;;;5057158;28;20543;-81
2021/07/13 07:35:47;;;;;;;4.87;4.47;;;22.40;70.30;;;;;;5055136;28;20982;-78
2021/07/13 07:38:14;;;;;;;4.77;4.10;;;22.40;70.80;;;;;;5048435;28;21010;-78
2021/07/13 07:40:41;;;;;;;5.20;4.70;;;22.40;70.50;;;;;;5042482;28;20456;-78
2021/07/13 07:43:08;;;;;;;4.70;4.40;;;22.60;70.40;;;;;;5047440;28;20513;-78
2021/07/13 07:45:35;;;;;;;5.10;4.70;;;22.50;70.50;;;;;;5048560;28;20527;-78
2021/07/13 07:48:04;;;;;;;6.50;4.90;;;22.30;70.70;;;;;;5044766;28;20464;-78
2021/07/13 07:50:31;;;;;;;5.30;4.97;;;22.70;71.20;;;;;;5040306;28;20450;-77
2021/07/13 07:52:59;;;;;;;4.93;4.53;;;22.80;70.70;;;;;;5049671;28;20450;-77
2021/07/13 07:55:28;;;;;;;4.57;4.27;;;22.80;71.20;;;;;;5036959;28;20558;-77
2021/07/13 07:57:55;;;;;;;5.17;4.80;;;23.00;71.40;;;;;;5040172;28;20805;-78
2021/07/13 08:00:23;;;;;;;5.77;4.50;;;22.70;70.50;;;;;;5037542;28;21028;-75
2021/07/13 08:02:50;;;;;;;5.03;4.73;;;22.80;70.80;;;;;;5050557;28;20526;-76
2021/07/13 08:05:17;;;;;;;5.30;4.90;;;22.90;70.90;;;;;;5045590;28;20477;-77
2021/07/13 08:07:47;;;;;;;5.83;5.33;;;22.80;70.80;;;;;;5034961;28;20451;-77
2021/07/13 08:10:16;;;;;;;5.60;4.83;;;22.90;71.50;;;;;;5043391;28;20450;-78
2021/07/13 08:12:44;;;;;;;4.53;4.23;;;22.80;71.70;;;;;;5050350;28;20460;-77
2021/07/13 08:15:13;;;;;;;5.60;5.13;;;23.20;70.80;;;;;;5050126;28;20504;-77
2021/07/13 08:17:41;;;;;;;4.93;4.50;;;23.30;70.40;;;;;;5040890;28;20491;-77
2021/07/13 08:20:10;;;;;;;6.13;5.17;;;23.50;70.80;;;;;;5035997;28;20476;-78
2021/07/13 08:22:37;;;;;;;5.43;5.03;;;23.30;69.80;;;;;;5034427;28;20466;-78
2021/07/13 08:25:04;;;;;;;4.90;4.60;;;23.60;70.10;;;;;;5037882;28;21216;-78
2021/07/13 08:27:34;;;;;;;5.30;4.90;;;23.60;70.20;;;;;;5045808;28;20450;-77
2021/07/13 08:30:01;;;;;;;5.07;4.77;;;23.60;69.90;;;;;;5046069;28;20450;-78
2021/07/13 08:32:28;;;;;;;5.63;5.23;;;23.70;69.80;;;;;;5051392;28;20454;-78
2021/07/13 08:34:55;;;;;;;5.00;4.70;;;23.90;69.90;;;;;;5053371;28;20461;-77
2021/07/13 08:37:22;;;;;;;6.20;5.63;;;24.00;69.00;;;;;;5055254;28;20446;-77
2021/07/13 08:39:49;;;;;;;5.80;5.40;;;24.10;68.20;;;;;;5042731;28;20471;-79
2021/07/13 08:42:16;;;;;;;5.97;5.33;;;23.80;68.70;;;;;;5044907;28;21228;-78
2021/07/13 08:44:46;;;;;;;6.43;5.90;;;23.90;68.90;;;;;;5056725;28;20470;-79
2021/07/13 08:47:15;;;;;;;6.00;5.50;;;24.00;69.20;;;;;;5052731;28;20435;-78
2021/07/13 08:49:45;;;;;;;6.00;5.60;;;24.50;68.50;;;;;;5054605;28;20470;-80
2021/07/13 08:52:13;;;;;;;6.73;6.13;;;24.60;68.20;;;;;;5050302;28;20489;-79
2021/07/13 08:54:40;;;;;;;6.20;5.67;;;25.10;67.70;;;;;;5042196;28;21392;-77
2021/07/13 08:57:10;;;;;;;6.00;5.50;;;24.90;67.60;;;;;;5040380;28;20478;-79
2021/07/13 08:59:37;;;;;;;5.77;5.37;;;25.10;67.50;;;;;;5037818;28;20465;-79
2021/07/13 09:02:05;;;;;;;6.63;6.07;;;25.60;66.60;;;;;;5035382;28;20430;-78
2021/07/13 09:04:34;;;;;;;6.80;6.10;;;25.60;66.30;;;;;;5038366;28;20463;-79
2021/07/13 09:07:06;;;;;;;7.40;5.87;;;25.60;66.00;;;;;;5045915;28;20445;-78
2021/07/13 09:09:35;;;;;;;5.13;4.83;;;25.90;65.50;;;;;;5045459;28;20448;-77
2021/07/13 09:12:14;;;;;;;6.53;5.67;;;26.10;65.50;;;;;;5055966;28;20490;-78
2021/07/13 09:14:50;;;;;;;6.60;6.00;;;26.10;65.40;;;;;;5042304;28;20505;-76
2021/07/13 09:17:29;;;;;;;6.43;5.93;;;26.60;64.40;;;;;;5039140;28;20465;-77
2021/07/13 09:20:01;;;;;;;5.40;5.00;;;26.90;63.20;;;;;;5042618;28;20499;-76
2021/07/13 09:22:28;;;;;;;6.13;5.73;;;27.60;62.20;;;;;;5045881;28;20485;-77
2021/07/13 09:24:55;;;;;;;5.33;5.03;;;27.50;61.60;;;;;;5041774;28;20839;-77
2021/07/13 09:27:22;;;;;;;6.40;5.80;;;27.40;61.20;;;;;;5046337;28;20475;-75
2021/07/13 09:29:51;;;;;;;12.27;5.27;;;27.30;61.70;;;;;;5038519;28;20555;-73
2021/07/13 09:32:25;;;;;;;5.63;5.30;;;27.00;61.90;;;;;;5037884;28;20465;-78
2021/07/13 09:34:55;;;;;;;5.63;5.10;;;26.90;61.70;;;;;;5040404;28;21139;-80
2021/07/13 09:37:25;;;;;;;5.67;5.27;;;27.00;61.70;;;;;;5042702;28;20504;-77
2021/07/13 09:40:00;;;;;;;5.67;5.07;;;27.10;61.30;;;;;;5037741;28;20495;-77
2021/07/13 09:42:30;;;;;;;5.20;4.90;;;27.00;61.20;;;;;;5032956;28;20505;-75
2021/07/13 09:45:15;;;;;;;5.60;5.20;;;26.50;62.30;;;;;;5052145;28;20457;-80
2021/07/13 09:47:42;;;;;;;6.13;5.70;;;26.50;61.80;;;;;;5050341;28;20443;-79
2021/07/13 09:50:13;;;;;;;6.50;6.00;;;26.60;61.50;;;;;;5060740;28;20437;-81
2021/07/13 09:52:40;;;;;;;7.20;6.60;;;26.40;62.20;;;;;;5063923;28;20476;-81
2021/07/13 09:55:22;;;;;;;6.00;5.50;;;26.30;62.50;;;;;;5060673;28;20458;-78
2021/07/13 09:57:52;;;;;;;5.90;5.40;;;26.50;62.10;;;;;;5058756;28;20461;-81
2021/07/13 10:00:22;;;;;;;6.90;5.60;;;27.00;61.60;;;;;;5058710;28;20482;-80
2021/07/13 10:02:51;;;;;;;5.77;5.30;;;27.00;61.50;;;;;;5046724;28;20530;-79
2021/07/13 10:05:27;;;;;;;6.03;5.60;;;27.40;61.70;;;;;;5047835;28;20486;-83
2021/07/13 10:07:54;;;;;;;6.30;5.90;;;27.20;61.80;;;;;;5045270;28;20811;-81
2021/07/13 10:10:24;;;;;;;7.90;5.60;;;27.20;61.90;;;;;;5044428;28;20473;-77
2021/07/13 10:12:57;;;;;;;7.47;6.60;;;27.20;61.40;;;;;;5055645;28;20446;-80
2021/07/13 10:15:25;;;;;;;6.83;6.30;;;27.20;61.40;;;;;;5056341;28;20493;-81
2021/07/13 10:17:53;;;;;;;6.43;6.03;;;27.20;61.70;;;;;;5057809;28;20451;-79
2021/07/13 10:20:24;;;;;;;6.80;6.20;;;27.00;61.50;;;;;;5058151;28;20468;-81
2021/07/13 10:22:55;;;;;;;5.60;5.20;;;26.80;61.50;;;;;;5056195;28;20477;-81
2021/07/13 10:25:35;;;;;;;6.87;6.20;;;27.10;61.80;;;;;;5055831;28;20506;-80
2021/07/13 10:28:02;;;;;;;7.33;6.73;;;27.00;61.30;;;;;;5054411;28;20730;-81
2021/07/13 10:30:36;;;;;;;7.33;6.47;;;27.00;61.50;;;;;;5044152;28;20838;-76
2021/07/13 10:33:04;;;;;;;6.50;6.10;;;26.90;61.90;;;;;;5041088;28;20445;-74
2021/07/13 10:35:33;;;;;;;7.07;6.57;;;26.90;61.90;;;;;;5041395;28;21043;-75
2021/07/13 10:38:21;;;;;;;6.60;6.10;;;26.80;61.80;;;;;;5043040;28;20446;-74
2021/07/13 10:40:50;;;;;;;6.80;6.30;;;26.70;61.40;;;;;;5041604;28;20453;-74
2021/07/13 10:43:19;;;;;;;6.03;5.63;;;26.70;61.80;;;;;;5047563;28;20978;-74
2021/07/13 10:45:49;;;;;;;7.17;6.50;;;26.70;61.50;;;;;;5044763;28;20513;-74
2021/07/13 10:48:17;;;;;;;7.07;6.33;;;26.40;62.20;;;;;;5039908;28;20453;-74
2021/07/13 10:50:47;;;;;;;7.13;6.63;;;26.20;62.20;;;;;;5045708;28;20538;-75
2021/07/13 10:53:23;;;;;;;6.30;5.83;;;26.20;62.00;;;;;;5039569;28;20508;-75
2021/07/13 10:56:12;;;;;;;7.40;6.90;;;26.30;62.00;;;;;;5037767;28;20470;-75
2021/07/13 10:58:57;;;;;;;7.37;6.87;;;26.40;61.90;;;;;;5037878;28;20468;-75
2021/07/13 11:01:27;;;;;;;6.37;5.77;;;26.40;61.40;;;;;;5045218;28;20541;-75
2021/07/13 11:03:56;;;;;;;6.53;5.80;;;26.30;61.00;;;;;;5044251;28;20533;-75
2021/07/13 11:06:47;;;;;;;6.10;5.70;;;26.40;60.70;;;;;;5034025;28;20457;-75
2021/07/13 11:09:27;;;;;;;6.10;5.53;;;26.60;60.00;;;;;;5037521;28;20499;-74
2021/07/13 11:12:02;;;;;;;6.90;5.90;;;26.90;59.80;;;;;;5037508;28;20446;-75
2021/07/13 11:14:29;;;;;;;6.70;6.10;;;27.20;60.00;;;;;;5039273;28;20508;-79
2021/07/13 11:16:56;;;;;;;6.40;6.00;;;27.10;59.90;;;;;;5047015;28;20478;-78
2021/07/13 11:19:23;;;;;;;6.77;6.10;;;26.70;60.10;;;;;;5046004;28;20495;-78
2021/07/13 11:21:53;;;;;;;7.23;6.30;;;26.70;60.50;;;;;;5047233;28;21024;-77
2021/07/13 11:24:21;;;;;;;6.50;6.10;;;26.80;60.10;;;;;;5047347;28;20437;-75
2021/07/13 11:26:51;;;;;;;5.77;5.23;;;27.00;60.10;;;;;;5040254;28;20855;-76
2021/07/13 11:32:06;;;;;;;6.80;6.20;;;27.20;60.50;;;;;;5049608;28;20453;-80
2021/07/13 11:34:35;;;;;;;6.70;6.20;;;27.60;59.60;;;;;;5052472;28;20461;-79
2021/07/13 11:37:08;;;;;;;5.87;5.37;;;27.40;59.40;;;;;;5055505;28;20474;-81
2021/07/13 11:39:40;;;;;;;6.10;5.60;;;27.40;59.40;;;;;;5058065;28;20477;-80
2021/07/13 11:42:10;;;;;;;5.70;5.30;;;27.40;59.30;;;;;;5058245;28;20450;-82
2021/07/13 11:44:39;;;;;;;6.00;5.43;;;27.80;59.20;;;;;;5062398;28;20430;-82
2021/07/13 11:47:11;;;;;;;6.40;5.77;;;28.20;58.90;;;;;;5071310;28;20538;-83
2021/07/13 11:49:43;;;;;;;6.30;5.80;;;28.10;58.90;;;;;;5061594;28;20437;-82
2021/07/13 11:52:18;;;;;;;5.43;5.03;;;27.90;58.90;;;;;;5055781;28;20549;-83
2021/07/13 11:54:56;;;;;;;5.87;5.47;;;27.70;59.10;;;;;;5055820;28;20454;-82
2021/07/13 11:57:25;;;;;;;5.87;5.37;;;27.50;59.40;;;;;;5052341;28;20495;-81
2021/07/13 11:59:53;;;;;;;6.07;5.50;;;27.30;59.20;;;;;;5052913;28;20489;-82
2021/07/13 12:02:20;;;;;;;6.40;6.00;;;27.10;59.40;;;;;;5051822;28;20518;-81
2021/07/13 12:04:59;;;;;;;5.93;5.43;;;27.00;59.50;;;;;;5057698;28;20487;-82
2021/07/13 12:07:53;;;;;;;5.47;5.17;;;27.10;59.80;;;;;;5058849;28;20793;-80
2021/07/13 12:10:21;;;;;;;6.50;5.03;;;27.20;60.00;;;;;;5055764;28;20457;-79
2021/07/13 12:12:48;;;;;;;5.70;5.30;;;27.10;59.80;;;;;;5068925;28;20469;-80
2021/07/13 12:15:22;;;;;;;5.77;5.27;;;27.10;59.40;;;;;;5063609;28;20540;-81
2021/07/13 12:17:52;;;;;;;5.47;5.17;;;27.00;59.90;;;;;;5068602;28;20831;-80
2021/07/13 12:20:19;;;;;;;5.93;5.50;;;27.30;59.70;;;;;;5058190;28;20446;-80
2021/07/13 12:22:46;;;;;;;6.83;6.23;;;27.30;58.80;;;;;;5059057;28;20454;-78
2021/07/13 12:25:14;;;;;;;6.00;5.60;;;27.00;59.40;;;;;;5045437;28;20445;-77
2021/07/13 12:27:41;;;;;;;9.87;6.03;;;26.90;59.40;;;;;;5049003;28;20454;-78
2021/07/13 12:30:14;;;;;;;6.43;5.20;;;26.60;59.80;;;;;;5049002;28;20522;-78
2021/07/13 12:32:42;;;;;;;6.87;5.50;;;26.40;60.00;;;;;;5048613;28;20983;-78
2021/07/13 12:35:11;;;;;;;5.63;5.27;;;25.90;60.30;;;;;;5051067;28;20446;-80
2021/07/13 12:37:39;;;;;;;5.90;5.50;;;25.60;60.80;;;;;;5055232;28;20454;-79
2021/07/13 12:40:08;;;;;;;5.60;5.20;;;25.30;61.10;;;;;;5059522;28;21002;-81
2021/07/13 12:42:38;;;;;;;5.23;4.93;;;25.10;61.50;;;;;;5059839;28;20472;-80
2021/07/13 12:45:12;;;;;;;5.07;4.70;;;24.90;61.80;;;;;;5057714;28;21230;-81
2021/07/13 12:47:39;;;;;;;5.13;4.73;;;24.80;61.30;;;;;;5050616;28;20507;-80
2021/07/13 12:50:08;;;;;;;5.97;5.10;;;24.80;61.50;;;;;;5051974;28;21078;-79
2021/07/13 12:52:37;;;;;;;4.60;3.93;;;24.50;62.70;;;;;;5050230;28;20450;-79
2021/07/13 12:55:09;;;;;;;5.50;4.50;;;24.20;63.60;;;;;;5039367;28;20517;-79
2021/07/13 12:57:39;;;;;;;4.80;4.50;;;23.90;64.10;;;;;;5043696;28;20482;-80
2021/07/13 13:00:13;;;;;;;4.80;4.40;;;23.90;64.30;;;;;;5059526;28;20478;-79
2021/07/13 13:02:41;;;;;;;4.97;4.67;;;24.30;64.10;;;;;;5055358;28;20454;-80
2021/07/13 13:05:10;;;;;;;4.50;4.20;;;24.60;63.50;;;;;;5050496;28;20492;-80
2021/07/13 13:07:38;;;;;;;4.53;4.23;;;24.90;63.10;;;;;;5053433;28;20478;-80